Time;durP1;ratioP1;P1;durP2;ratioP2;P2;SDS_P1;SDS_P2;PMS_P1;PMS_P2;Temp;Humidity;BMP_temperature;BMP_pressure;BME280_temperature;BME280_humidity;BME280_pressure;Samples;Min_cycle;Max_cycle;Signal;HPM_P1;HPM_P2
2023/02/15 00:01:11;;;;;;;25.87;15.67;;;;;;;;;;5000574;28;20273;-73
2023/02/15 00:03:37;;;;;;;29.10;17.90;;;;;;;;;;5005446;28;20369;-72
2023/02/15 00:06:02;;;;;;;30.27;18.70;;;;;;;;;;5003628;28;20493;-73
2023/02/15 00:08:27;;;;;;;34.40;17.92;;;;;;;;;;4997236;28;20754;-76
2023/02/15 00:10:53;;;;;;;31.03;17.23;;;;;;;;;;5003412;28;20110;-71
2023/02/15 00:13:18;;;;;;;26.13;15.27;;;;;;;;;;5001474;28;20400;-70
2023/02/15 00:15:43;;;;;;;27.00;16.63;;;;;;;;;;5001039;28;20354;-70
2023/02/15 00:18:08;;;;;;;30.73;16.70;;;;;;;;;;5002726;28;20280;-70
2023/02/15 00:20:34;;;;;;;29.03;15.60;;;;;;;;;;5011496;28;20273;-72
2023/02/15 00:22:59;;;;;;;28.67;15.75;;;;;;;;;;5001729;28;20273;-70
2023/02/15 00:25:24;;;;;;;23.55;14.63;;;;;;;;;;4999869;28;20034;-79
2023/02/15 00:27:50;;;;;;;25.80;14.40;;;;;;;;;;5000995;28;20026;-69
2023/02/15 00:30:15;;;;;;;26.65;14.88;;;;;;;;;;5002149;28;20867;-69
2023/02/15 00:32:40;;;;;;;28.30;14.82;;;;;;;;;;5001093;28;20573;-71
2023/02/15 00:35:06;;;;;;;27.67;14.53;;;;;;;;;;4999638;28;20038;-70
2023/02/15 00:37:32;;;;;;;28.42;16.17;;;;;;;;;;4999987;28;20291;-69
2023/02/15 00:39:57;;;;;;;26.02;15.65;;;;;;;;;;5001660;28;20541;-68
2023/02/15 00:42:22;;;;;;;25.73;13.57;;;;;;;;;;4999824;28;20021;-69
2023/02/15 00:44:47;;;;;;;23.95;14.18;;;;;;;;;;4998303;28;20301;-68
2023/02/15 00:47:12;;;;;;;24.30;15.03;;;;;;;;;;5000894;28;20058;-76
2023/02/15 00:49:38;;;;;;;24.40;14.30;;;;;;;;;;5000670;28;20332;-77
2023/02/15 00:52:03;;;;;;;26.17;14.37;;;;;;;;;;5009204;28;20085;-75
2023/02/15 00:54:28;;;;;;;25.70;15.20;;;;;;;;;;4999772;28;20278;-76
2023/02/15 00:56:53;;;;;;;24.50;15.07;;;;;;;;;;5009760;28;20018;-78
2023/02/15 00:59:19;;;;;;;24.30;15.17;;;;;;;;;;5007053;28;20664;-75
2023/02/15 01:01:44;;;;;;;23.40;14.68;;;;;;;;;;4998190;28;20285;-70
2023/02/15 01:04:09;;;;;;;28.87;14.77;;;;;;;;;;5000620;28;20132;-69
2023/02/15 01:06:34;;;;;;;23.70;12.87;;;;;;;;;;5001077;28;20661;-71
2023/02/15 01:08:59;;;;;;;25.17;14.93;;;;;;;;;;4996502;28;20276;-72
2023/02/15 01:11:24;;;;;;;24.40;13.83;;;;;;;;;;5004531;28;20273;-72
2023/02/15 01:13:57;;;;;;;23.43;15.00;;;;;;;;;;4997432;28;20273;-74
2023/02/15 01:16:23;;;;;;;24.23;14.63;;;;;;;;;;5000726;28;20359;-72
2023/02/15 01:18:48;;;;;;;24.80;13.15;;;;;;;;;;5004233;28;20125;-72
2023/02/15 01:21:15;;;;;;;24.23;13.30;;;;;;;;;;5000787;28;20060;-79
2023/02/15 01:23:41;;;;;;;22.25;12.55;;;;;;;;;;5008216;28;20029;-75
2023/02/15 01:26:06;;;;;;;22.80;13.20;;;;;;;;;;5008007;28;20028;-76
2023/02/15 01:28:32;;;;;;;25.20;14.45;;;;;;;;;;5003851;28;20373;-76
2023/02/15 01:30:57;;;;;;;24.35;13.50;;;;;;;;;;5004911;28;20018;-76
2023/02/15 01:33:22;;;;;;;23.20;13.03;;;;;;;;;;5003540;28;20516;-76
2023/02/15 01:35:47;;;;;;;22.07;13.63;;;;;;;;;;5015686;28;20272;-76
2023/02/15 01:38:13;;;;;;;30.30;13.10;;;;;;;;;;5003927;28;20320;-76
2023/02/15 01:40:38;;;;;;;29.40;14.52;;;;;;;;;;5006864;28;20292;-71
2023/02/15 01:43:08;;;;;;;22.30;12.68;;;;;;;;;;5003247;28;20056;-71
2023/02/15 01:45:33;;;;;;;22.60;12.30;;;;;;;;;;5003815;28;20049;-70
2023/02/15 01:48:02;;;;;;;20.80;12.43;;;;;;;;;;5006417;28;20030;-72
2023/02/15 01:50:34;;;;;;;20.77;12.48;;;;;;;;;;5005660;28;20030;-74
2023/02/15 01:53:11;;;;;;;21.35;12.00;;;;;;;;;;5006182;28;20105;-72
2023/02/15 01:55:38;;;;;;;21.92;12.65;;;;;;;;;;5006984;28;20041;-71
2023/02/15 01:58:03;;;;;;;22.52;12.48;;;;;;;;;;5008975;28;20021;-82
2023/02/15 02:00:28;;;;;;;22.90;12.70;;;;;;;;;;5003677;28;20033;-71
2023/02/15 02:02:55;;;;;;;22.13;12.30;;;;;;;;;;5004157;28;20288;-72
2023/02/15 02:05:20;;;;;;;23.42;14.65;;;;;;;;;;4997855;28;20070;-71
2023/02/15 02:07:46;;;;;;;22.00;11.55;;;;;;;;;;5001227;28;20054;-72
2023/02/15 02:10:13;;;;;;;22.10;11.43;;;;;;;;;;5008200;28;20493;-71
2023/02/15 02:12:40;;;;;;;21.38;13.57;;;;;;;;;;5006654;28;20030;-71
2023/02/15 02:15:06;;;;;;;23.98;12.90;;;;;;;;;;5000024;28;20034;-73
2023/02/15 02:17:43;;;;;;;23.08;13.10;;;;;;;;;;5004194;28;20469;-71
2023/02/15 02:20:26;;;;;;;20.92;12.73;;;;;;;;;;5001198;28;20079;-74
2023/02/15 02:23:05;;;;;;;18.33;11.73;;;;;;;;;;5002739;28;20104;-75
2023/02/15 02:25:30;;;;;;;20.65;12.07;;;;;;;;;;4998246;28;20093;-76
2023/02/15 02:28:15;;;;;;;22.97;13.60;;;;;;;;;;5005142;28;20021;-74
2023/02/15 02:30:40;;;;;;;28.13;14.13;;;;;;;;;;5002802;28;20025;-76
2023/02/15 02:33:14;;;;;;;22.10;12.87;;;;;;;;;;5005494;28;20029;-75
2023/02/15 02:35:51;;;;;;;22.95;12.70;;;;;;;;;;5001719;28;20343;-69
2023/02/15 02:38:22;;;;;;;23.73;13.57;;;;;;;;;;5005683;28;20018;-79
2023/02/15 02:40:50;;;;;;;20.90;10.63;;;;;;;;;;5004256;28;20565;-79
2023/02/15 02:43:21;;;;;;;20.45;10.95;;;;;;;;;;5002207;28;20054;-78
2023/02/15 02:46:07;;;;;;;22.00;12.27;;;;;;;;;;5003230;28;20076;-80
2023/02/15 02:48:32;;;;;;;20.67;12.63;;;;;;;;;;5000197;28;20048;-80
2023/02/15 02:50:58;;;;;;;23.20;12.48;;;;;;;;;;4997083;28;20022;-77
2023/02/15 02:53:23;;;;;;;21.63;10.83;;;;;;;;;;5003435;28;20030;-72
2023/02/15 02:56:14;;;;;;;20.63;10.75;;;;;;;;;;5004532;28;20281;-75
2023/02/15 02:58:40;;;;;;;20.10;11.55;;;;;;;;;;5002054;28;20036;-74
2023/02/15 03:01:24;;;;;;;21.27;12.03;;;;;;;;;;5009951;28;20422;-76
2023/02/15 03:03:51;;;;;;;23.63;11.88;;;;;;;;;;4997757;28;20280;-74
2023/02/15 03:06:28;;;;;;;17.50;11.30;;;;;;;;;;5007291;28;20030;-75
2023/02/15 03:08:56;;;;;;;21.90;11.93;;;;;;;;;;4999987;28;20117;-75
2023/02/15 03:11:22;;;;;;;19.67;11.30;;;;;;;;;;4999140;28;20032;-74
2023/02/15 03:13:48;;;;;;;21.00;11.45;;;;;;;;;;5004906;28;20461;-79
2023/02/15 03:16:28;;;;;;;22.50;12.43;;;;;;;;;;4999812;28;20583;-81
2023/02/15 03:19:00;;;;;;;21.23;12.75;;;;;;;;;;5001432;28;20018;-79
2023/02/15 03:21:40;;;;;;;21.25;11.98;;;;;;;;;;5001609;28;20092;-79
2023/02/15 03:24:10;;;;;;;21.98;11.73;;;;;;;;;;5001302;28;20113;-80
2023/02/15 03:26:37;;;;;;;20.60;11.93;;;;;;;;;;5004234;28;20477;-79
2023/02/15 03:29:03;;;;;;;22.98;12.05;;;;;;;;;;5001533;28;20088;-75
2023/02/15 03:31:31;;;;;;;23.30;13.45;;;;;;;;;;5005525;28;20209;-69
2023/02/15 03:33:59;;;;;;;18.20;10.63;;;;;;;;;;5002277;28;20028;-74
2023/02/15 03:36:27;;;;;;;19.52;11.25;;;;;;;;;;5002305;28;20130;-75
2023/02/15 03:39:02;;;;;;;19.88;11.45;;;;;;;;;;4997924;28;20019;-75
2023/02/15 03:41:32;;;;;;;21.75;12.10;;;;;;;;;;4999311;28;20026;-75
2023/02/15 03:44:03;;;;;;;18.90;10.80;;;;;;;;;;5002329;28;20030;-75
2023/02/15 03:46:33;;;;;;;17.10;10.40;;;;;;;;;;5002316;28;20109;-76
2023/02/15 03:49:07;;;;;;;19.80;11.15;;;;;;;;;;5007642;28;20374;-70
2023/02/15 03:51:35;;;;;;;21.60;11.30;;;;;;;;;;5001558;28;20049;-70
2023/02/15 03:54:06;;;;;;;23.25;11.90;;;;;;;;;;5001329;28;20021;-70
2023/02/15 03:56:33;;;;;;;18.65;11.05;;;;;;;;;;5001926;28;20513;-70
2023/02/15 04:01:57;;;;;;;22.77;12.50;;;;;;;;;;5003940;28;20018;-73
2023/02/15 04:04:28;;;;;;;18.63;10.93;;;;;;;;;;5007933;28;20041;-72
2023/02/15 04:06:53;;;;;;;22.25;10.10;;;;;;;;;;4999708;28;20424;-69
2023/02/15 04:12:02;;;;;;;20.52;11.00;;;;;;;;;;4996208;28;20029;-68
2023/02/15 04:17:11;;;;;;;17.83;11.40;;;;;;;;;;5002682;28;20054;-70
2023/02/15 04:25:13;;;;;;;23.98;11.80;;;;;;;;;;4999273;28;20034;-74
2023/02/15 04:27:51;;;;;;;20.85;11.77;;;;;;;;;;4998119;28;20033;-75
2023/02/15 04:30:18;;;;;;;19.83;11.27;;;;;;;;;;5000608;28;20523;-75
2023/02/15 04:32:43;;;;;;;20.75;11.98;;;;;;;;;;4998217;28;20034;-75
2023/02/15 04:35:09;;;;;;;19.10;10.80;;;;;;;;;;5005764;28;20092;-75
2023/02/15 04:37:34;;;;;;;21.10;12.23;;;;;;;;;;5003719;28;20026;-75
2023/02/15 04:39:59;;;;;;;23.15;12.15;;;;;;;;;;5004604;28;20090;-75
2023/02/15 04:42:25;;;;;;;19.17;10.73;;;;;;;;;;5004360;28;20018;-71
2023/02/15 04:44:50;;;;;;;20.35;12.23;;;;;;;;;;4999972;28;20343;-80
2023/02/15 04:47:16;;;;;;;20.05;11.85;;;;;;;;;;4997877;28;20046;-76
2023/02/15 04:49:41;;;;;;;16.00;10.17;;;;;;;;;;5001725;28;20037;-75
2023/02/15 04:52:06;;;;;;;20.93;11.40;;;;;;;;;;5001943;28;20272;-76
2023/02/15 04:54:31;;;;;;;19.17;11.30;;;;;;;;;;5003433;28;20280;-76
2023/02/15 04:56:56;;;;;;;22.93;11.90;;;;;;;;;;4993741;28;20771;-75
2023/02/15 04:59:22;;;;;;;20.03;12.47;;;;;;;;;;5000167;28;20303;-76
2023/02/15 05:01:47;;;;;;;16.90;10.57;;;;;;;;;;4999709;28;20277;-71
2023/02/15 05:04:12;;;;;;;21.73;10.60;;;;;;;;;;5002612;28;20018;-79
2023/02/15 05:06:37;;;;;;;21.20;12.23;;;;;;;;;;5003703;28;20369;-81
2023/02/15 05:09:02;;;;;;;18.58;11.13;;;;;;;;;;5005183;28;20352;-81
2023/02/15 05:11:28;;;;;;;22.67;10.70;;;;;;;;;;5000605;28;20505;-82
2023/02/15 05:13:53;;;;;;;20.17;10.27;;;;;;;;;;4996744;28;20328;-81
2023/02/15 05:16:18;;;;;;;20.10;10.87;;;;;;;;;;4999520;28;20279;-80
2023/02/15 05:18:43;;;;;;;19.97;11.63;;;;;;;;;;5003494;28;20281;-79
2023/02/15 05:21:09;;;;;;;22.15;11.48;;;;;;;;;;4999872;28;20858;-76
2023/02/15 05:23:34;;;;;;;21.67;11.45;;;;;;;;;;4998696;28;20444;-74
2023/02/15 05:28:43;;;;;;;21.25;12.13;;;;;;;;;;5003730;28;20034;-74
2023/02/15 05:31:13;;;;;;;20.05;11.68;;;;;;;;;;5000917;28;20030;-75
2023/02/15 05:33:38;;;;;;;21.33;10.98;;;;;;;;;;4997910;28;20097;-74
2023/02/15 05:36:04;;;;;;;20.88;11.13;;;;;;;;;;4994762;28;20527;-74
2023/02/15 05:38:29;;;;;;;20.83;12.38;;;;;;;;;;5001610;28;20018;-69
2023/02/15 05:40:55;;;;;;;25.02;12.43;;;;;;;;;;5004510;28;20049;-76
2023/02/15 05:43:20;;;;;;;24.42;11.35;;;;;;;;;;5002558;28;20472;-76
2023/02/15 05:45:47;;;;;;;24.90;11.68;;;;;;;;;;4998767;28;20032;-75
2023/02/15 05:48:12;;;;;;;17.80;10.30;;;;;;;;;;4997873;28;20087;-75
2023/02/15 05:50:37;;;;;;;20.97;11.90;;;;;;;;;;5003830;28;20052;-74
2023/02/15 05:53:02;;;;;;;19.70;11.07;;;;;;;;;;4999266;28;20284;-77
2023/02/15 05:55:27;;;;;;;22.23;11.27;;;;;;;;;;4998961;28;20718;-76
2023/02/15 05:57:53;;;;;;;20.30;10.57;;;;;;;;;;5002257;28;20265;-67
2023/02/15 06:00:18;;;;;;;24.40;11.63;;;;;;;;;;5008341;28;20273;-69
2023/02/15 06:02:43;;;;;;;24.23;12.38;;;;;;;;;;5000209;28;20279;-69
2023/02/15 06:05:09;;;;;;;22.23;11.23;;;;;;;;;;5000761;28;20033;-68
2023/02/15 06:07:34;;;;;;;22.38;12.38;;;;;;;;;;5001401;28;20677;-68
2023/02/15 06:09:59;;;;;;;23.27;11.77;;;;;;;;;;5014840;28;20526;-68
2023/02/15 06:12:24;;;;;;;24.90;12.32;;;;;;;;;;5012426;28;20024;-70
2023/02/15 06:14:50;;;;;;;23.67;11.70;;;;;;;;;;4996248;28;20073;-75
2023/02/15 06:17:16;;;;;;;29.02;12.60;;;;;;;;;;5003513;28;20307;-69
2023/02/15 06:19:41;;;;;;;20.45;11.27;;;;;;;;;;5000515;28;20049;-69
2023/02/15 06:22:07;;;;;;;23.23;12.07;;;;;;;;;;4996958;28;20025;-68
2023/02/15 06:24:32;;;;;;;22.25;11.60;;;;;;;;;;5007294;28;20410;-70
2023/02/15 06:26:57;;;;;;;19.15;11.30;;;;;;;;;;5004526;28;20509;-70
2023/02/15 06:29:23;;;;;;;22.30;11.65;;;;;;;;;;5006980;28;20052;-71
2023/02/15 06:31:48;;;;;;;25.77;12.73;;;;;;;;;;5001747;28;20346;-71
2023/02/15 06:34:13;;;;;;;19.83;11.73;;;;;;;;;;4997982;28;20854;-69
2023/02/15 06:36:38;;;;;;;24.83;12.65;;;;;;;;;;5004580;28;20283;-78
2023/02/15 06:39:03;;;;;;;21.20;11.40;;;;;;;;;;5004030;28;20621;-77
2023/02/15 06:41:29;;;;;;;18.40;11.27;;;;;;;;;;5004074;28;20045;-79
2023/02/15 06:43:54;;;;;;;21.27;11.82;;;;;;;;;;5016920;28;20233;-79
2023/02/15 06:46:19;;;;;;;21.08;12.13;;;;;;;;;;5013624;28;20153;-77
2023/02/15 06:48:44;;;;;;;20.30;12.33;;;;;;;;;;5010659;28;20033;-77
2023/02/15 06:51:10;;;;;;;19.47;11.77;;;;;;;;;;5020584;28;20281;-75
2023/02/15 06:53:35;;;;;;;28.37;13.10;;;;;;;;;;5014397;28;20260;-69
2023/02/15 06:56:06;;;;;;;18.73;11.85;;;;;;;;;;5012043;28;20300;-77
2023/02/15 06:58:35;;;;;;;21.58;10.98;;;;;;;;;;5003784;28;20042;-75
2023/02/15 07:01:00;;;;;;;21.73;12.35;;;;;;;;;;5005680;28;20026;-77
2023/02/15 07:03:25;;;;;;;23.20;12.27;;;;;;;;;;5013857;28;20087;-78
2023/02/15 07:05:54;;;;;;;22.87;12.13;;;;;;;;;;5015377;28;20277;-78
2023/02/15 07:08:19;;;;;;;22.27;11.88;;;;;;;;;;5012117;28;20347;-80
2023/02/15 07:10:45;;;;;;;26.45;12.35;;;;;;;;;;5009260;28;20080;-68
2023/02/15 07:13:10;;;;;;;24.67;12.68;;;;;;;;;;5007262;28;20420;-68
2023/02/15 07:15:35;;;;;;;21.27;12.87;;;;;;;;;;5009361;28;20028;-67
2023/02/15 07:18:00;;;;;;;24.60;12.90;;;;;;;;;;5014587;28;20257;-69
2023/02/15 07:20:26;;;;;;;22.87;11.63;;;;;;;;;;5017562;28;20276;-68
2023/02/15 07:22:51;;;;;;;23.65;12.43;;;;;;;;;;5008995;28;20717;-68
2023/02/15 07:25:16;;;;;;;21.85;12.40;;;;;;;;;;5007002;28;20543;-69
2023/02/15 07:27:42;;;;;;;20.75;11.55;;;;;;;;;;5009716;28;20765;-68
2023/02/15 07:30:09;;;;;;;22.48;12.70;;;;;;;;;;5009131;28;20029;-68
2023/02/15 07:32:34;;;;;;;22.88;13.35;;;;;;;;;;5008359;28;20092;-70
2023/02/15 07:35:00;;;;;;;22.48;12.75;;;;;;;;;;5001347;28;20409;-71
2023/02/15 07:37:26;;;;;;;26.00;15.70;;;;;;;;;;5008055;28;20053;-69
2023/02/15 07:39:51;;;;;;;22.70;12.88;;;;;;;;;;5013611;28;20492;-69
2023/02/15 07:42:17;;;;;;;24.83;12.97;;;;;;;;;;5004485;28;20516;-72
2023/02/15 07:44:42;;;;;;;23.05;12.63;;;;;;;;;;5001410;28;20355;-72
2023/02/15 07:47:08;;;;;;;22.55;11.93;;;;;;;;;;5013592;28;20088;-72
2023/02/15 07:49:33;;;;;;;27.50;13.27;;;;;;;;;;5005863;28;20037;-62
2023/02/15 07:52:00;;;;;;;22.50;12.63;;;;;;;;;;5005708;28;20257;-63
2023/02/15 07:54:25;;;;;;;24.42;12.88;;;;;;;;;;5007833;28;20273;-64
2023/02/15 07:56:50;;;;;;;24.00;12.27;;;;;;;;;;5008851;28;20029;-65
2023/02/15 07:59:16;;;;;;;24.00;13.25;;;;;;;;;;5001528;28;20273;-64
2023/02/15 08:01:41;;;;;;;22.33;13.13;;;;;;;;;;4996421;28;20466;-65
2023/02/15 08:04:07;;;;;;;23.48;12.60;;;;;;;;;;5005306;28;20026;-64
2023/02/15 08:06:34;;;;;;;21.38;12.15;;;;;;;;;;5004861;28;20110;-67
2023/02/15 08:09:00;;;;;;;21.42;13.32;;;;;;;;;;5006786;28;20026;-74
2023/02/15 08:11:32;;;;;;;20.27;12.73;;;;;;;;;;5001682;28;20030;-73
2023/02/15 08:14:02;;;;;;;23.92;12.32;;;;;;;;;;5005394;28;20129;-72
2023/02/15 08:16:36;;;;;;;23.50;13.00;;;;;;;;;;5004948;28;20180;-74
2023/02/15 08:19:04;;;;;;;23.38;13.93;;;;;;;;;;4996171;28;20022;-75
2023/02/15 08:21:30;;;;;;;23.00;13.05;;;;;;;;;;5011227;28;20022;-73
2023/02/15 08:23:55;;;;;;;20.85;13.27;;;;;;;;;;5007261;28;20041;-72
2023/02/15 08:26:21;;;;;;;26.75;14.48;;;;;;;;;;5007023;28;20030;-67
2023/02/15 08:28:46;;;;;;;22.40;13.05;;;;;;;;;;5011756;28;20025;-68
2023/02/15 08:31:13;;;;;;;22.93;14.13;;;;;;;;;;5012278;28;20021;-66
2023/02/15 08:33:39;;;;;;;24.08;14.38;;;;;;;;;;5001915;28;20649;-68
2023/02/15 08:36:05;;;;;;;23.40;13.68;;;;;;;;;;5005831;28;20026;-68
2023/02/15 08:38:31;;;;;;;27.70;15.13;;;;;;;;;;5008005;28;20032;-70
2023/02/15 08:40:56;;;;;;;24.40;14.38;;;;;;;;;;5004222;28;20066;-68
2023/02/15 08:43:22;;;;;;;27.90;14.77;;;;;;;;;;5004583;28;20023;-71
2023/02/15 08:45:47;;;;;;;25.20;13.95;;;;;;;;;;5002454;28;20301;-71
2023/02/15 08:48:12;;;;;;;27.27;15.70;;;;;;;;;;5004487;28;20025;-70
2023/02/15 08:50:37;;;;;;;27.87;13.03;;;;;;;;;;5007225;28;20075;-70
2023/02/15 08:53:03;;;;;;;25.80;16.33;;;;;;;;;;5008820;28;20627;-71
2023/02/15 08:55:28;;;;;;;24.52;15.68;;;;;;;;;;5011408;28;20784;-71
2023/02/15 08:57:55;;;;;;;28.73;14.63;;;;;;;;;;5009077;28;20045;-70
2023/02/15 09:00:22;;;;;;;28.77;14.48;;;;;;;;;;5007729;28;20029;-69
2023/02/15 09:02:47;;;;;;;28.25;16.65;;;;;;;;;;5005163;28;20536;-72
2023/02/15 09:05:13;;;;;;;28.17;17.00;;;;;;;;;;5011923;28;20041;-71
2023/02/15 09:07:38;;;;;;;27.08;15.43;;;;;;;;;;5010124;28;20257;-72
2023/02/15 09:10:04;;;;;;;29.77;16.92;;;;;;;;;;5003524;28;20585;-70
2023/02/15 09:12:29;;;;;;;28.45;15.38;;;;;;;;;;5000329;28;20366;-73
2023/02/15 09:14:54;;;;;;;32.47;15.53;;;;;;;;;;5005732;28;20054;-72
2023/02/15 09:17:19;;;;;;;26.55;16.35;;;;;;;;;;5008431;28;20284;-70
2023/02/15 09:19:44;;;;;;;27.67;16.30;;;;;;;;;;5001538;28;20543;-67
2023/02/15 09:22:10;;;;;;;27.10;17.20;;;;;;;;;;5010008;28;20741;-71
2023/02/15 09:24:35;;;;;;;27.75;15.93;;;;;;;;;;5004185;28;20276;-71
2023/02/15 09:27:00;;;;;;;29.13;15.67;;;;;;;;;;5006058;28;20034;-72
2023/02/15 09:29:25;;;;;;;26.37;16.33;;;;;;;;;;5000365;28;20280;-71
2023/02/15 09:31:51;;;;;;;28.57;16.63;;;;;;;;;;5006440;28;20417;-71
2023/02/15 09:34:17;;;;;;;27.27;16.13;;;;;;;;;;4998421;28;20820;-70
2023/02/15 09:36:43;;;;;;;27.02;16.48;;;;;;;;;;5002299;28;20044;-71
2023/02/15 09:39:15;;;;;;;28.27;16.05;;;;;;;;;;5004381;28;20561;-70
2023/02/15 09:41:54;;;;;;;26.73;15.45;;;;;;;;;;4999545;28;20060;-71
2023/02/15 09:44:27;;;;;;;26.73;15.83;;;;;;;;;;5006068;28;20033;-71
2023/02/15 09:47:10;;;;;;;26.60;17.38;;;;;;;;;;5006447;28;20030;-71
2023/02/15 09:49:56;;;;;;;24.73;16.30;;;;;;;;;;4998056;28;20076;-70
2023/02/15 09:52:32;;;;;;;27.90;17.73;;;;;;;;;;5013111;28;20720;-71
2023/02/15 09:54:57;;;;;;;28.00;16.63;;;;;;;;;;5018500;28;20450;-71
2023/02/15 09:57:41;;;;;;;26.13;15.27;;;;;;;;;;5018851;28;20022;-71
2023/02/15 10:00:27;;;;;;;26.63;16.85;;;;;;;;;;5008436;28;20293;-65
2023/02/15 10:03:04;;;;;;;23.67;16.10;;;;;;;;;;5001978;28;20061;-67
2023/02/15 10:05:48;;;;;;;25.00;16.63;;;;;;;;;;5007410;28;20180;-67
2023/02/15 10:08:13;;;;;;;34.65;18.98;;;;;;;;;;5004909;28;20056;-67
2023/02/15 10:10:41;;;;;;;24.23;15.63;;;;;;;;;;5011993;28;20033;-67
2023/02/15 10:13:21;;;;;;;28.08;16.85;;;;;;;;;;5003416;28;20409;-68
2023/02/15 10:16:10;;;;;;;26.73;16.20;;;;;;;;;;5007810;28;20041;-71
2023/02/15 10:18:35;;;;;;;28.08;17.00;;;;;;;;;;5002714;28;20026;-72
2023/02/15 10:21:23;;;;;;;26.70;16.37;;;;;;;;;;5009408;28;20505;-71
2023/02/15 10:23:51;;;;;;;23.77;15.80;;;;;;;;;;5008100;28;20299;-71
2023/02/15 10:26:18;;;;;;;23.60;15.88;;;;;;;;;;5010855;28;20026;-70
2023/02/15 10:28:43;;;;;;;26.58;15.52;;;;;;;;;;5009010;28;20112;-70
2023/02/15 10:31:16;;;;;;;23.13;15.53;;;;;;;;;;5009879;28;20030;-69
2023/02/15 10:33:42;;;;;;;26.02;17.40;;;;;;;;;;5003215;28;20909;-73
2023/02/15 10:36:16;;;;;;;25.30;16.10;;;;;;;;;;5004869;28;20030;-72
2023/02/15 10:38:42;;;;;;;25.30;16.33;;;;;;;;;;5005767;28;20020;-72
2023/02/15 10:41:25;;;;;;;26.52;17.67;;;;;;;;;;5003406;28;20033;-71
2023/02/15 10:43:56;;;;;;;27.75;17.63;;;;;;;;;;5005141;28;20021;-71
2023/02/15 10:46:33;;;;;;;25.55;16.35;;;;;;;;;;5003142;28;20034;-71
2023/02/15 10:48:58;;;;;;;24.38;15.98;;;;;;;;;;5007382;28;20033;-73
2023/02/15 10:51:37;;;;;;;22.13;16.13;;;;;;;;;;5009204;28;20049;-70
2023/02/15 10:54:18;;;;;;;24.77;16.75;;;;;;;;;;5002197;28;20451;-71
2023/02/15 10:57:04;;;;;;;27.52;16.60;;;;;;;;;;5007435;28;20024;-71
2023/02/15 10:59:53;;;;;;;27.63;17.50;;;;;;;;;;5010874;28;20113;-70
2023/02/15 11:02:36;;;;;;;25.48;16.40;;;;;;;;;;5014474;28;20557;-72
2023/02/15 11:05:18;;;;;;;26.15;17.25;;;;;;;;;;5011628;28;20034;-70
2023/02/15 11:07:45;;;;;;;27.75;17.52;;;;;;;;;;5006130;28;20164;-69
2023/02/15 11:10:26;;;;;;;24.73;16.85;;;;;;;;;;5002690;28;20038;-71
2023/02/15 11:12:52;;;;;;;29.75;17.35;;;;;;;;;;5012606;28;20053;-73
2023/02/15 11:15:18;;;;;;;27.15;16.95;;;;;;;;;;5004869;28;20489;-72
2023/02/15 11:17:46;;;;;;;28.20;17.73;;;;;;;;;;5000886;28;20172;-72
2023/02/15 11:20:19;;;;;;;30.08;18.27;;;;;;;;;;5005223;28;20006;-73
2023/02/15 11:22:47;;;;;;;27.98;18.23;;;;;;;;;;5007822;28;20427;-70
2023/02/15 11:25:18;;;;;;;27.95;16.73;;;;;;;;;;5002299;28;20083;-71
2023/02/15 11:27:45;;;;;;;30.50;18.00;;;;;;;;;;5002177;28;20030;-73
2023/02/15 11:30:12;;;;;;;29.90;17.98;;;;;;;;;;4999620;28;20026;-69
2023/02/15 11:32:43;;;;;;;25.60;16.25;;;;;;;;;;5014936;28;20032;-71
2023/02/15 11:35:11;;;;;;;28.80;16.58;;;;;;;;;;5012253;28;20595;-71
2023/02/15 11:37:40;;;;;;;26.27;17.58;;;;;;;;;;5008864;28;20017;-72
2023/02/15 11:40:15;;;;;;;28.55;18.25;;;;;;;;;;5008769;28;20033;-70
2023/02/15 11:42:41;;;;;;;30.48;18.10;;;;;;;;;;5006091;28;20381;-70
2023/02/15 11:45:25;;;;;;;23.58;16.40;;;;;;;;;;5003605;28;20033;-71
2023/02/15 11:47:50;;;;;;;26.08;17.25;;;;;;;;;;5009579;28;20024;-71
2023/02/15 11:50:18;;;;;;;26.67;16.52;;;;;;;;;;5004522;28;20109;-72
2023/02/15 11:52:43;;;;;;;24.83;16.60;;;;;;;;;;5008535;28;20033;-71
2023/02/15 11:55:13;;;;;;;29.52;17.05;;;;;;;;;;5009149;28;20014;-70
2023/02/15 11:57:40;;;;;;;26.25;17.08;;;;;;;;;;5007785;28;20025;-70
2023/02/15 12:00:12;;;;;;;24.73;16.83;;;;;;;;;;5002418;28;20022;-70
2023/02/15 12:02:38;;;;;;;28.90;16.45;;;;;;;;;;5001312;28;20025;-69
2023/02/15 12:05:08;;;;;;;25.70;16.75;;;;;;;;;;5015854;28;20053;-59
2023/02/15 12:07:36;;;;;;;27.50;17.73;;;;;;;;;;5010097;28;20362;-63
2023/02/15 12:10:13;;;;;;;27.15;16.75;;;;;;;;;;5011035;28;20219;-64
2023/02/15 12:12:39;;;;;;;27.40;16.92;;;;;;;;;;5009599;28;20368;-66
2023/02/15 12:15:05;;;;;;;27.23;17.55;;;;;;;;;;5008860;28;20153;-62
2023/02/15 12:17:32;;;;;;;30.90;18.80;;;;;;;;;;5007633;28;20036;-63
2023/02/15 12:20:01;;;;;;;28.77;17.73;;;;;;;;;;5006828;28;20030;-68
2023/02/15 12:22:31;;;;;;;25.95;15.80;;;;;;;;;;5009085;28;20022;-61
2023/02/15 12:24:59;;;;;;;25.13;16.58;;;;;;;;;;5006577;28;20025;-65
2023/02/15 12:27:27;;;;;;;29.20;17.75;;;;;;;;;;5017230;28;20610;-66
2023/02/15 12:30:02;;;;;;;28.00;17.38;;;;;;;;;;5006386;28;20513;-64
2023/02/15 12:32:29;;;;;;;26.00;17.52;;;;;;;;;;5006529;28;20108;-67
2023/02/15 12:35:10;;;;;;;27.90;18.05;;;;;;;;;;5005847;28;20014;-66
2023/02/15 12:37:35;;;;;;;27.85;17.63;;;;;;;;;;5008900;28;20076;-64
2023/02/15 12:40:02;;;;;;;30.92;18.45;;;;;;;;;;5009989;28;20022;-67
2023/02/15 12:42:39;;;;;;;28.73;16.98;;;;;;;;;;5007416;28;20715;-61
2023/02/15 12:45:20;;;;;;;25.58;17.60;;;;;;;;;;4999277;28;20065;-61
2023/02/15 12:47:45;;;;;;;26.05;17.23;;;;;;;;;;5001982;28;20620;-63
2023/02/15 12:50:25;;;;;;;25.80;16.75;;;;;;;;;;4998187;28;20042;-63
2023/02/15 12:52:51;;;;;;;26.77;18.77;;;;;;;;;;5006156;28;20026;-63
2023/02/15 12:55:19;;;;;;;28.20;18.00;;;;;;;;;;5002837;28;20413;-61
2023/02/15 12:57:46;;;;;;;28.67;18.20;;;;;;;;;;5002834;28;20032;-61
2023/02/15 13:00:18;;;;;;;33.67;19.52;;;;;;;;;;5006664;28;20032;-59
2023/02/15 13:02:46;;;;;;;24.58;17.25;;;;;;;;;;5004089;28;20030;-71
2023/02/15 13:05:18;;;;;;;26.25;17.83;;;;;;;;;;5003009;28;20034;-72
2023/02/15 13:07:49;;;;;;;24.85;17.35;;;;;;;;;;5009738;28;20095;-70
2023/02/15 13:10:26;;;;;;;27.63;18.58;;;;;;;;;;5006335;28;20500;-69
2023/02/15 13:12:53;;;;;;;24.48;17.35;;;;;;;;;;5001135;28;20030;-69
2023/02/15 13:15:27;;;;;;;24.25;15.70;;;;;;;;;;5005482;28;20123;-69
2023/02/15 13:17:52;;;;;;;26.50;18.25;;;;;;;;;;5007643;28;20029;-64
2023/02/15 13:20:20;;;;;;;31.60;18.98;;;;;;;;;;5007372;28;20034;-63
2023/02/15 13:22:47;;;;;;;32.13;17.95;;;;;;;;;;5011696;28;20033;-61
2023/02/15 13:25:17;;;;;;;30.90;18.20;;;;;;;;;;5014555;28;20420;-61
2023/02/15 13:27:45;;;;;;;;;;;;;;;;;;5005876;28;20034;-63
2023/02/15 13:30:19;;;;;;;27.10;17.50;;;;;;;;;;5001648;28;19913;-58
2023/02/15 13:32:45;;;;;;;26.55;16.88;;;;;;;;;;5005380;28;20033;-60
2023/02/15 13:35:14;;;;;;;25.65;17.52;;;;;;;;;;5005683;28;20022;-60
2023/02/15 13:37:57;;;;;;;28.90;19.55;;;;;;;;;;5004888;28;20049;-60
2023/02/15 13:40:23;;;;;;;24.58;16.67;;;;;;;;;;5011683;28;20038;-62
2023/02/15 13:43:11;;;;;;;29.55;18.30;;;;;;;;;;5008274;28;20465;-59
2023/02/15 13:45:46;;;;;;;27.50;17.77;;;;;;;;;;5006485;28;20026;-60
2023/02/15 13:48:11;;;;;;;27.27;19.55;;;;;;;;;;5003667;28;20021;-62
2023/02/15 13:50:51;;;;;;;26.05;17.77;;;;;;;;;;5009431;28;20060;-61
2023/02/15 13:53:16;;;;;;;;;;;;;;;;;;5012513;28;20042;-64
2023/02/15 13:55:56;;;;;;;25.80;17.58;;;;;;;;;;5008227;28;20017;-68
2023/02/15 13:58:28;;;;;;;33.38;17.20;;;;;;;;;;5009372;28;20054;-60
2023/02/15 14:01:10;;;;;;;24.50;17.38;;;;;;;;;;5007949;28;20120;-61
2023/02/15 14:03:47;;;;;;;25.65;18.20;;;;;;;;;;5008834;28;20053;-60
2023/02/15 14:06:31;;;;;;;24.33;16.30;;;;;;;;;;4998498;28;20030;-61
2023/02/15 14:09:35;;;;;;;28.52;17.33;;;;;;;;;;5005371;28;20133;-61
2023/02/15 14:12:03;;;;;;;27.92;18.50;;;;;;;;;;4966574;28;20050;-62
2023/02/15 14:14:28;;;;;;;27.40;17.63;;;;;;;;;;4972417;28;20042;-71
2023/02/15 14:16:56;;;;;;;28.87;16.70;;;;;;;;;;4966888;28;20066;-70
2023/02/15 14:19:27;;;;;;;28.20;16.85;;;;;;;;;;4959142;28;20033;-71
2023/02/15 14:22:01;;;;;;;25.50;16.33;;;;;;;;;;4961389;28;20306;-71
2023/02/15 14:24:30;;;;;;;24.63;16.27;;;;;;;;;;4971514;28;20058;-72
2023/02/15 14:26:55;;;;;;;29.17;16.58;;;;;;;;;;4964056;28;20047;-71
2023/02/15 14:29:29;;;;;;;22.40;16.17;;;;;;;;;;4957760;28;20035;-70
2023/02/15 14:32:02;;;;;;;22.67;15.13;;;;;;;;;;4963366;28;20027;-72
2023/02/15 14:34:31;;;;;;;22.90;15.98;;;;;;;;;;4969319;28;20026;-61
2023/02/15 14:36:56;;;;;;;25.63;14.98;;;;;;;;;;4962507;28;20069;-60
2023/02/15 14:42:36;;;;;;;26.05;15.35;;;;;;;;;;4982828;28;20026;-63
2023/02/15 14:45:14;;;;;;;23.80;14.15;;;;;;;;;;5012018;28;20371;-60
2023/02/15 14:47:44;;;;;;;20.85;15.00;;;;;;;;;;5000533;28;20034;-59